sensor_id;sensor_type;location;lat;lon;timestamp;temperature;humidity
38788;DHT22;24536;45.488;12.238;2024-02-16T00:00:08;8.70;99.10
38788;DHT22;24536;45.488;12.238;2024-02-16T00:02:40;8.70;99.20
38788;DHT22;24536;45.488;12.238;2024-02-16T00:05:09;8.60;99.50
38788;DHT22;24536;45.488;12.238;2024-02-16T00:07:40;8.60;99.30
38788;DHT22;24536;45.488;12.238;2024-02-16T00:10:07;8.60;99.30
38788;DHT22;24536;45.488;12.238;2024-02-16T00:12:34;8.60;99.40
38788;DHT22;24536;45.488;12.238;2024-02-16T00:15:01;8.60;99.20
38788;DHT22;24536;45.488;12.238;2024-02-16T00:17:27;8.60;99.20
38788;DHT22;24536;45.488;12.238;2024-02-16T00:20:01;8.60;99.20
38788;DHT22;24536;45.488;12.238;2024-02-16T00:22:27;8.50;99.20
38788;DHT22;24536;45.488;12.238;2024-02-16T00:24:52;8.50;99.40
38788;DHT22;24536;45.488;12.238;2024-02-16T00:27:18;8.50;99.50
38788;DHT22;24536;45.488;12.238;2024-02-16T00:29:44;8.60;99.40
38788;DHT22;24536;45.488;12.238;2024-02-16T00:32:11;8.60;99.20
38788;DHT22;24536;45.488;12.238;2024-02-16T00:34:38;8.60;99.00
38788;DHT22;24536;45.488;12.238;2024-02-16T00:37:05;8.60;99.10
38788;DHT22;24536;45.488;12.238;2024-02-16T00:39:38;8.60;99.20
38788;DHT22;24536;45.488;12.238;2024-02-16T00:42:07;8.60;99.30
38788;DHT22;24536;45.488;12.238;2024-02-16T00:44:33;8.60;99.30
38788;DHT22;24536;45.488;12.238;2024-02-16T00:46:58;8.70;99.30
38788;DHT22;24536;45.488;12.238;2024-02-16T00:49:24;8.70;99.10
38788;DHT22;24536;45.488;12.238;2024-02-16T00:51:50;8.80;99.10
38788;DHT22;24536;45.488;12.238;2024-02-16T00:54:16;8.70;99.00
38788;DHT22;24536;45.488;12.238;2024-02-16T00:56:42;8.70;98.90
38788;DHT22;24536;45.488;12.238;2024-02-16T00:59:08;8.70;98.90
38788;DHT22;24536;45.488;12.238;2024-02-16T01:01:35;8.60;98.90
38788;DHT22;24536;45.488;12.238;2024-02-16T01:04:02;8.60;99.00
38788;DHT22;24536;45.488;12.238;2024-02-16T01:06:27;8.50;99.20
38788;DHT22;24536;45.488;12.238;2024-02-16T01:08:53;8.50;99.30
38788;DHT22;24536;45.488;12.238;2024-02-16T01:11:19;8.60;99.20
38788;DHT22;24536;45.488;12.238;2024-02-16T01:13:46;8.60;99.10
38788;DHT22;24536;45.488;12.238;2024-02-16T01:16:11;8.60;98.90
38788;DHT22;24536;45.488;12.238;2024-02-16T01:18:37;8.60;98.80
38788;DHT22;24536;45.488;12.238;2024-02-16T01:21:04;8.60;98.80
38788;DHT22;24536;45.488;12.238;2024-02-16T01:23:30;8.70;98.70
38788;DHT22;24536;45.488;12.238;2024-02-16T01:25:55;8.70;98.90
38788;DHT22;24536;45.488;12.238;2024-02-16T01:28:21;8.70;98.60
38788;DHT22;24536;45.488;12.238;2024-02-16T01:30:48;8.70;98.40
38788;DHT22;24536;45.488;12.238;2024-02-16T01:33:14;8.70;98.10
38788;DHT22;24536;45.488;12.238;2024-02-16T01:35:40;8.60;98.20
38788;DHT22;24536;45.488;12.238;2024-02-16T01:38:06;8.50;98.40
38788;DHT22;24536;45.488;12.238;2024-02-16T01:40:31;8.50;98.40
38788;DHT22;24536;45.488;12.238;2024-02-16T01:42:57;8.40;98.30
38788;DHT22;24536;45.488;12.238;2024-02-16T01:45:23;8.40;98.40
38788;DHT22;24536;45.488;12.238;2024-02-16T01:47:52;8.40;98.50
38788;DHT22;24536;45.488;12.238;2024-02-16T01:50:19;8.40;98.30
38788;DHT22;24536;45.488;12.238;2024-02-16T01:52:47;8.40;98.20
38788;DHT22;24536;45.488;12.238;2024-02-16T01:55:13;8.40;98.10
38788;DHT22;24536;45.488;12.238;2024-02-16T01:57:40;8.30;98.30
38788;DHT22;24536;45.488;12.238;2024-02-16T02:00:08;8.30;98.30
38788;DHT22;24536;45.488;12.238;2024-02-16T02:02:37;8.20;98.20
38788;DHT22;24536;45.488;12.238;2024-02-16T02:05:03;8.20;98.30
38788;DHT22;24536;45.488;12.238;2024-02-16T02:07:30;8.20;98.20
38788;DHT22;24536;45.488;12.238;2024-02-16T02:09:56;8.10;98.30
38788;DHT22;24536;45.488;12.238;2024-02-16T02:12:22;8.00;98.40
38788;DHT22;24536;45.488;12.238;2024-02-16T02:14:49;8.00;98.60
38788;DHT22;24536;45.488;12.238;2024-02-16T02:17:15;8.00;98.70
38788;DHT22;24536;45.488;12.238;2024-02-16T02:19:41;8.10;98.70
38788;DHT22;24536;45.488;12.238;2024-02-16T02:22:16;8.10;98.50
38788;DHT22;24536;45.488;12.238;2024-02-16T02:24:43;8.10;98.50
38788;DHT22;24536;45.488;12.238;2024-02-16T02:27:10;8.00;98.40
38788;DHT22;24536;45.488;12.238;2024-02-16T02:29:36;8.00;98.40
38788;DHT22;24536;45.488;12.238;2024-02-16T02:32:01;7.90;98.70
38788;DHT22;24536;45.488;12.238;2024-02-16T02:34:27;7.90;98.70
38788;DHT22;24536;45.488;12.238;2024-02-16T02:36:53;7.90;98.60
38788;DHT22;24536;45.488;12.238;2024-02-16T02:39:19;7.90;98.60
38788;DHT22;24536;45.488;12.238;2024-02-16T02:41:44;7.80;98.40
38788;DHT22;24536;45.488;12.238;2024-02-16T02:44:10;7.80;98.60
38788;DHT22;24536;45.488;12.238;2024-02-16T02:46:36;7.70;98.80
38788;DHT22;24536;45.488;12.238;2024-02-16T02:49:02;7.70;98.90
38788;DHT22;24536;45.488;12.238;2024-02-16T02:51:29;7.70;99.00
38788;DHT22;24536;45.488;12.238;2024-02-16T02:53:55;7.70;99.10
38788;DHT22;24536;45.488;12.238;2024-02-16T02:56:20;7.60;99.10
38788;DHT22;24536;45.488;12.238;2024-02-16T02:58:46;7.60;99.20
38788;DHT22;24536;45.488;12.238;2024-02-16T03:01:12;7.60;99.20
38788;DHT22;24536;45.488;12.238;2024-02-16T03:03:39;7.60;99.20
38788;DHT22;24536;45.488;12.238;2024-02-16T03:06:06;7.60;99.20
38788;DHT22;24536;45.488;12.238;2024-02-16T03:08:32;7.60;99.30
38788;DHT22;24536;45.488;12.238;2024-02-16T03:10:58;7.60;99.40
38788;DHT22;24536;45.488;12.238;2024-02-16T03:13:26;7.60;99.40
38788;DHT22;24536;45.488;12.238;2024-02-16T03:15:51;7.70;99.40
38788;DHT22;24536;45.488;12.238;2024-02-16T03:18:18;7.70;99.20
38788;DHT22;24536;45.488;12.238;2024-02-16T03:20:45;7.80;99.20
38788;DHT22;24536;45.488;12.238;2024-02-16T03:23:13;7.70;99.20
38788;DHT22;24536;45.488;12.238;2024-02-16T03:25:39;7.70;99.20
38788;DHT22;24536;45.488;12.238;2024-02-16T03:28:05;7.70;99.20
38788;DHT22;24536;45.488;12.238;2024-02-16T03:30:31;7.70;99.10
38788;DHT22;24536;45.488;12.238;2024-02-16T03:32:57;7.50;99.10
38788;DHT22;24536;45.488;12.238;2024-02-16T03:35:22;7.50;99.40
38788;DHT22;24536;45.488;12.238;2024-02-16T03:37:48;7.50;99.40
38788;DHT22;24536;45.488;12.238;2024-02-16T03:40:13;7.60;99.50
38788;DHT22;24536;45.488;12.238;2024-02-16T03:42:39;7.60;99.40
38788;DHT22;24536;45.488;12.238;2024-02-16T03:45:09;7.60;99.40
38788;DHT22;24536;45.488;12.238;2024-02-16T03:47:34;7.70;99.50
38788;DHT22;24536;45.488;12.238;2024-02-16T03:50:00;7.80;99.40
38788;DHT22;24536;45.488;12.238;2024-02-16T03:52:26;7.80;99.30
38788;DHT22;24536;45.488;12.238;2024-02-16T03:54:51;7.80;99.20
38788;DHT22;24536;45.488;12.238;2024-02-16T03:57:17;7.80;99.30
38788;DHT22;24536;45.488;12.238;2024-02-16T03:59:43;7.90;99.20
38788;DHT22;24536;45.488;12.238;2024-02-16T04:02:09;7.90;99.20
38788;DHT22;24536;45.488;12.238;2024-02-16T04:04:36;7.90;99.10
38788;DHT22;24536;45.488;12.238;2024-02-16T04:07:02;7.90;99.10
38788;DHT22;24536;45.488;12.238;2024-02-16T04:09:28;7.80;99.20
38788;DHT22;24536;45.488;12.238;2024-02-16T04:11:53;7.80;99.30
38788;DHT22;24536;45.488;12.238;2024-02-16T04:14:19;7.70;99.40
38788;DHT22;24536;45.488;12.238;2024-02-16T04:16:45;7.80;99.70
38788;DHT22;24536;45.488;12.238;2024-02-16T04:19:10;7.80;99.70
38788;DHT22;24536;45.488;12.238;2024-02-16T04:21:36;7.80;99.70
38788;DHT22;24536;45.488;12.238;2024-02-16T04:24:02;7.80;99.70
38788;DHT22;24536;45.488;12.238;2024-02-16T04:26:28;7.80;99.80
38788;DHT22;24536;45.488;12.238;2024-02-16T04:28:54;7.80;99.80
38788;DHT22;24536;45.488;12.238;2024-02-16T04:31:20;7.70;99.90
38788;DHT22;24536;45.488;12.238;2024-02-16T04:33:45;7.70;99.90
38788;DHT22;24536;45.488;12.238;2024-02-16T04:36:11;7.70;99.90
38788;DHT22;24536;45.488;12.238;2024-02-16T04:38:37;7.60;99.90
38788;DHT22;24536;45.488;12.238;2024-02-16T04:41:04;7.50;99.90
38788;DHT22;24536;45.488;12.238;2024-02-16T04:43:30;7.50;99.90
38788;DHT22;24536;45.488;12.238;2024-02-16T04:45:56;7.60;99.90
38788;DHT22;24536;45.488;12.238;2024-02-16T04:48:21;7.50;99.90
38788;DHT22;24536;45.488;12.238;2024-02-16T04:50:48;7.60;99.90
38788;DHT22;24536;45.488;12.238;2024-02-16T04:53:14;7.60;99.90
38788;DHT22;24536;45.488;12.238;2024-02-16T04:55:39;7.50;99.90
38788;DHT22;24536;45.488;12.238;2024-02-16T04:58:05;7.40;99.90
38788;DHT22;24536;45.488;12.238;2024-02-16T05:00:38;7.40;99.90
38788;DHT22;24536;45.488;12.238;2024-02-16T05:03:04;7.40;99.90
38788;DHT22;24536;45.488;12.238;2024-02-16T05:05:29;7.40;99.90
38788;DHT22;24536;45.488;12.238;2024-02-16T05:07:58;7.40;99.90
38788;DHT22;24536;45.488;12.238;2024-02-16T05:10:23;7.40;99.90
38788;DHT22;24536;45.488;12.238;2024-02-16T05:12:49;7.50;99.90
38788;DHT22;24536;45.488;12.238;2024-02-16T05:15:15;7.50;99.90
38788;DHT22;24536;45.488;12.238;2024-02-16T05:17:41;7.50;99.90
38788;DHT22;24536;45.488;12.238;2024-02-16T05:20:11;7.50;99.90
38788;DHT22;24536;45.488;12.238;2024-02-16T05:22:42;7.50;99.90
38788;DHT22;24536;45.488;12.238;2024-02-16T05:25:09;7.50;99.90
38788;DHT22;24536;45.488;12.238;2024-02-16T05:27:35;7.50;99.90
38788;DHT22;24536;45.488;12.238;2024-02-16T05:30:01;7.50;99.90
38788;DHT22;24536;45.488;12.238;2024-02-16T05:32:26;7.60;99.90
38788;DHT22;24536;45.488;12.238;2024-02-16T05:34:53;7.70;99.90
38788;DHT22;24536;45.488;12.238;2024-02-16T05:37:18;7.70;99.90
38788;DHT22;24536;45.488;12.238;2024-02-16T05:39:45;7.80;99.90
38788;DHT22;24536;45.488;12.238;2024-02-16T05:42:23;7.80;99.90
38788;DHT22;24536;45.488;12.238;2024-02-16T05:44:49;7.90;99.90
38788;DHT22;24536;45.488;12.238;2024-02-16T05:47:16;7.90;99.90
38788;DHT22;24536;45.488;12.238;2024-02-16T05:49:42;7.90;99.90
38788;DHT22;24536;45.488;12.238;2024-02-16T05:52:07;7.90;99.90
38788;DHT22;24536;45.488;12.238;2024-02-16T05:54:46;7.90;99.90
38788;DHT22;24536;45.488;12.238;2024-02-16T05:57:13;7.80;99.90
38788;DHT22;24536;45.488;12.238;2024-02-16T05:59:39;7.80;99.90
38788;DHT22;24536;45.488;12.238;2024-02-16T06:02:05;7.80;99.90
38788;DHT22;24536;45.488;12.238;2024-02-16T06:04:32;7.80;99.90
38788;DHT22;24536;45.488;12.238;2024-02-16T06:06:58;7.80;99.90
38788;DHT22;24536;45.488;12.238;2024-02-16T06:09:24;7.90;99.90
38788;DHT22;24536;45.488;12.238;2024-02-16T06:11:49;7.90;99.90
38788;DHT22;24536;45.488;12.238;2024-02-16T06:14:15;8.00;99.90
38788;DHT22;24536;45.488;12.238;2024-02-16T06:16:41;8.00;99.90
38788;DHT22;24536;45.488;12.238;2024-02-16T06:19:08;8.00;99.80
38788;DHT22;24536;45.488;12.238;2024-02-16T06:21:35;8.00;99.60
38788;DHT22;24536;45.488;12.238;2024-02-16T06:24:01;8.00;99.40
38788;DHT22;24536;45.488;12.238;2024-02-16T06:26:26;8.00;99.50
38788;DHT22;24536;45.488;12.238;2024-02-16T06:28:52;7.90;99.40
38788;DHT22;24536;45.488;12.238;2024-02-16T06:31:17;7.90;99.60
38788;DHT22;24536;45.488;12.238;2024-02-16T06:33:43;7.90;99.80
38788;DHT22;24536;45.488;12.238;2024-02-16T06:36:09;8.00;99.80
38788;DHT22;24536;45.488;12.238;2024-02-16T06:38:38;8.00;99.70
38788;DHT22;24536;45.488;12.238;2024-02-16T06:41:04;8.00;99.70
38788;DHT22;24536;45.488;12.238;2024-02-16T06:43:30;8.00;99.70
38788;DHT22;24536;45.488;12.238;2024-02-16T06:45:55;8.10;99.80
38788;DHT22;24536;45.488;12.238;2024-02-16T06:48:22;8.10;99.80
38788;DHT22;24536;45.488;12.238;2024-02-16T06:50:48;8.20;99.80
38788;DHT22;24536;45.488;12.238;2024-02-16T06:53:14;8.20;99.70
38788;DHT22;24536;45.488;12.238;2024-02-16T06:55:40;8.20;99.50
38788;DHT22;24536;45.488;12.238;2024-02-16T06:58:06;8.20;99.50
38788;DHT22;24536;45.488;12.238;2024-02-16T07:00:32;8.20;99.40
38788;DHT22;24536;45.488;12.238;2024-02-16T07:02:57;8.20;99.50
38788;DHT22;24536;45.488;12.238;2024-02-16T07:05:23;8.20;99.40
38788;DHT22;24536;45.488;12.238;2024-02-16T07:07:49;8.20;99.50
38788;DHT22;24536;45.488;12.238;2024-02-16T07:10:15;8.20;99.70
38788;DHT22;24536;45.488;12.238;2024-02-16T07:12:41;8.20;99.80
38788;DHT22;24536;45.488;12.238;2024-02-16T07:15:08;8.20;99.90
38788;DHT22;24536;45.488;12.238;2024-02-16T07:17:34;8.30;99.90
38788;DHT22;24536;45.488;12.238;2024-02-16T07:20:00;8.30;99.90
38788;DHT22;24536;45.488;12.238;2024-02-16T07:22:29;8.30;99.90
38788;DHT22;24536;45.488;12.238;2024-02-16T07:24:55;8.40;99.90
38788;DHT22;24536;45.488;12.238;2024-02-16T07:27:20;8.40;99.90
38788;DHT22;24536;45.488;12.238;2024-02-16T07:29:46;8.40;99.90
38788;DHT22;24536;45.488;12.238;2024-02-16T07:32:12;8.40;99.90
38788;DHT22;24536;45.488;12.238;2024-02-16T07:34:38;8.50;99.90
38788;DHT22;24536;45.488;12.238;2024-02-16T07:37:04;8.50;99.90
38788;DHT22;24536;45.488;12.238;2024-02-16T07:39:29;8.60;99.90
38788;DHT22;24536;45.488;12.238;2024-02-16T07:41:56;8.60;99.70
38788;DHT22;24536;45.488;12.238;2024-02-16T07:44:21;8.60;99.50
38788;DHT22;24536;45.488;12.238;2024-02-16T07:46:47;8.50;99.40
38788;DHT22;24536;45.488;12.238;2024-02-16T07:49:15;8.50;99.50
38788;DHT22;24536;45.488;12.238;2024-02-16T07:51:40;8.60;99.60
38788;DHT22;24536;45.488;12.238;2024-02-16T07:54:07;8.60;99.60
38788;DHT22;24536;45.488;12.238;2024-02-16T07:56:33;8.70;99.60
38788;DHT22;24536;45.488;12.238;2024-02-16T07:58:59;8.60;99.40
38788;DHT22;24536;45.488;12.238;2024-02-16T08:01:25;8.50;99.40
38788;DHT22;24536;45.488;12.238;2024-02-16T08:03:52;8.40;99.60
38788;DHT22;24536;45.488;12.238;2024-02-16T08:06:18;8.40;99.80
38788;DHT22;24536;45.488;12.238;2024-02-16T08:08:47;8.30;99.90
38788;DHT22;24536;45.488;12.238;2024-02-16T08:11:12;8.30;99.90
38788;DHT22;24536;45.488;12.238;2024-02-16T08:13:38;8.40;99.90
38788;DHT22;24536;45.488;12.238;2024-02-16T08:16:04;8.30;99.90
38788;DHT22;24536;45.488;12.238;2024-02-16T08:18:35;8.30;99.90
38788;DHT22;24536;45.488;12.238;2024-02-16T08:21:01;8.30;99.90
38788;DHT22;24536;45.488;12.238;2024-02-16T08:23:27;8.40;99.90
38788;DHT22;24536;45.488;12.238;2024-02-16T08:25:52;8.40;99.90
38788;DHT22;24536;45.488;12.238;2024-02-16T08:28:18;8.40;99.90
38788;DHT22;24536;45.488;12.238;2024-02-16T08:30:44;8.50;99.90
38788;DHT22;24536;45.488;12.238;2024-02-16T08:33:11;8.50;99.90
38788;DHT22;24536;45.488;12.238;2024-02-16T08:35:38;8.50;99.90
38788;DHT22;24536;45.488;12.238;2024-02-16T08:38:04;8.50;99.90
38788;DHT22;24536;45.488;12.238;2024-02-16T08:40:30;8.40;99.90
38788;DHT22;24536;45.488;12.238;2024-02-16T08:42:56;8.40;99.90
38788;DHT22;24536;45.488;12.238;2024-02-16T08:45:22;8.40;99.90
38788;DHT22;24536;45.488;12.238;2024-02-16T08:47:48;8.40;99.90
38788;DHT22;24536;45.488;12.238;2024-02-16T08:50:14;8.40;99.90
38788;DHT22;24536;45.488;12.238;2024-02-16T08:52:40;8.50;99.90
38788;DHT22;24536;45.488;12.238;2024-02-16T08:55:06;8.50;99.90
38788;DHT22;24536;45.488;12.238;2024-02-16T08:57:33;8.50;99.90
38788;DHT22;24536;45.488;12.238;2024-02-16T08:59:59;8.50;99.90
38788;DHT22;24536;45.488;12.238;2024-02-16T09:02:25;8.60;99.90
38788;DHT22;24536;45.488;12.238;2024-02-16T09:04:50;8.70;99.90
38788;DHT22;24536;45.488;12.238;2024-02-16T09:07:16;8.70;99.90
38788;DHT22;24536;45.488;12.238;2024-02-16T09:09:41;8.80;99.90
38788;DHT22;24536;45.488;12.238;2024-02-16T09:12:07;8.90;99.90
38788;DHT22;24536;45.488;12.238;2024-02-16T09:14:33;8.90;99.90
38788;DHT22;24536;45.488;12.238;2024-02-16T09:16:59;8.90;99.90
38788;DHT22;24536;45.488;12.238;2024-02-16T09:19:24;8.80;99.90
38788;DHT22;24536;45.488;12.238;2024-02-16T09:21:50;8.80;99.90
38788;DHT22;24536;45.488;12.238;2024-02-16T09:24:17;8.80;99.90
38788;DHT22;24536;45.488;12.238;2024-02-16T09:26:44;8.90;99.90
38788;DHT22;24536;45.488;12.238;2024-02-16T09:29:12;8.90;99.90
38788;DHT22;24536;45.488;12.238;2024-02-16T09:31:40;8.90;99.90
38788;DHT22;24536;45.488;12.238;2024-02-16T09:34:05;9.00;99.90
38788;DHT22;24536;45.488;12.238;2024-02-16T09:36:31;9.00;99.90
38788;DHT22;24536;45.488;12.238;2024-02-16T09:38:57;9.00;99.90
38788;DHT22;24536;45.488;12.238;2024-02-16T09:41:23;9.00;99.90
38788;DHT22;24536;45.488;12.238;2024-02-16T09:43:48;9.00;99.90
38788;DHT22;24536;45.488;12.238;2024-02-16T09:46:15;9.10;99.90
38788;DHT22;24536;45.488;12.238;2024-02-16T09:48:43;9.10;99.90
38788;DHT22;24536;45.488;12.238;2024-02-16T09:51:13;9.10;99.90
38788;DHT22;24536;45.488;12.238;2024-02-16T09:53:39;9.20;99.90
38788;DHT22;24536;45.488;12.238;2024-02-16T09:56:05;9.40;99.90
38788;DHT22;24536;45.488;12.238;2024-02-16T09:58:34;9.40;99.90
38788;DHT22;24536;45.488;12.238;2024-02-16T10:01:00;9.50;99.90
38788;DHT22;24536;45.488;12.238;2024-02-16T10:03:30;9.50;99.90
38788;DHT22;24536;45.488;12.238;2024-02-16T10:06:08;9.60;99.90
38788;DHT22;24536;45.488;12.238;2024-02-16T10:08:46;9.60;99.90
38788;DHT22;24536;45.488;12.238;2024-02-16T10:11:11;9.60;99.90
38788;DHT22;24536;45.488;12.238;2024-02-16T10:13:40;9.70;99.90
38788;DHT22;24536;45.488;12.238;2024-02-16T10:16:07;9.80;99.90
38788;DHT22;24536;45.488;12.238;2024-02-16T10:18:37;10.00;99.90
38788;DHT22;24536;45.488;12.238;2024-02-16T10:21:03;10.20;99.90
38788;DHT22;24536;45.488;12.238;2024-02-16T10:23:29;10.30;99.90
38788;DHT22;24536;45.488;12.238;2024-02-16T10:25:55;10.40;99.90
38788;DHT22;24536;45.488;12.238;2024-02-16T10:28:21;10.60;99.90
38788;DHT22;24536;45.488;12.238;2024-02-16T10:30:58;10.60;99.30
38788;DHT22;24536;45.488;12.238;2024-02-16T10:33:27;10.70;99.50
38788;DHT22;24536;45.488;12.238;2024-02-16T10:35:56;10.70;98.80
38788;DHT22;24536;45.488;12.238;2024-02-16T10:38:25;10.70;98.80
38788;DHT22;24536;45.488;12.238;2024-02-16T10:40:53;10.70;98.80
38788;DHT22;24536;45.488;12.238;2024-02-16T10:43:21;10.80;99.20
38788;DHT22;24536;45.488;12.238;2024-02-16T10:45:49;11.00;99.30
38788;DHT22;24536;45.488;12.238;2024-02-16T10:48:18;11.20;99.10
38788;DHT22;24536;45.488;12.238;2024-02-16T10:50:44;11.50;99.00
38788;DHT22;24536;45.488;12.238;2024-02-16T10:53:16;11.80;98.70
38788;DHT22;24536;45.488;12.238;2024-02-16T10:55:44;12.10;98.40
38788;DHT22;24536;45.488;12.238;2024-02-16T10:58:11;12.50;97.90
38788;DHT22;24536;45.488;12.238;2024-02-16T11:00:54;12.70;97.40
38788;DHT22;24536;45.488;12.238;2024-02-16T11:03:24;13.10;97.10
38788;DHT22;24536;45.488;12.238;2024-02-16T11:05:50;13.40;96.50
38788;DHT22;24536;45.488;12.238;2024-02-16T11:08:18;13.60;96.00
38788;DHT22;24536;45.488;12.238;2024-02-16T11:13:26;14.00;94.90
38788;DHT22;24536;45.488;12.238;2024-02-16T11:18:25;14.50;94.70
38788;DHT22;24536;45.488;12.238;2024-02-16T11:20:52;14.50;93.60
38788;DHT22;24536;45.488;12.238;2024-02-16T11:23:26;14.60;93.90
38788;DHT22;24536;45.488;12.238;2024-02-16T11:25:53;14.70;92.10
38788;DHT22;24536;45.488;12.238;2024-02-16T11:28:19;14.70;93.20
38788;DHT22;24536;45.488;12.238;2024-02-16T11:30:45;14.90;93.10
38788;DHT22;24536;45.488;12.238;2024-02-16T11:33:11;14.90;92.50
38788;DHT22;24536;45.488;12.238;2024-02-16T11:35:37;15.00;92.00
38788;DHT22;24536;45.488;12.238;2024-02-16T11:38:04;15.10;92.80
38788;DHT22;24536;45.488;12.238;2024-02-16T11:40:30;15.30;92.80
38788;DHT22;24536;45.488;12.238;2024-02-16T11:43:02;15.50;91.60
38788;DHT22;24536;45.488;12.238;2024-02-16T11:45:35;15.70;92.40
38788;DHT22;24536;45.488;12.238;2024-02-16T11:48:05;15.90;92.00
38788;DHT22;24536;45.488;12.238;2024-02-16T11:50:31;16.10;90.80
38788;DHT22;24536;45.488;12.238;2024-02-16T11:53:22;16.20;91.60
38788;DHT22;24536;45.488;12.238;2024-02-16T11:55:49;16.50;90.40
38788;DHT22;24536;45.488;12.238;2024-02-16T11:58:20;17.20;90.80
38788;DHT22;24536;45.488;12.238;2024-02-16T12:00:47;17.60;85.80
38788;DHT22;24536;45.488;12.238;2024-02-16T12:03:23;18.20;88.50
38788;DHT22;24536;45.488;12.238;2024-02-16T12:08:20;19.20;81.90
38788;DHT22;24536;45.488;12.238;2024-02-16T12:10:48;19.30;83.40
38788;DHT22;24536;45.488;12.238;2024-02-16T12:13:17;19.30;80.70
38788;DHT22;24536;45.488;12.238;2024-02-16T12:15:52;19.50;83.00
38788;DHT22;24536;45.488;12.238;2024-02-16T12:18:25;19.60;81.40
38788;DHT22;24536;45.488;12.238;2024-02-16T12:21:05;20.00;81.60
38788;DHT22;24536;45.488;12.238;2024-02-16T12:23:31;20.60;78.80
38788;DHT22;24536;45.488;12.238;2024-02-16T12:25:58;20.60;77.90
38788;DHT22;24536;45.488;12.238;2024-02-16T12:28:26;20.80;78.40
38788;DHT22;24536;45.488;12.238;2024-02-16T12:30:54;21.30;78.30
38788;DHT22;24536;45.488;12.238;2024-02-16T12:33:20;21.10;74.10
38788;DHT22;24536;45.488;12.238;2024-02-16T12:35:46;21.10;75.30
38788;DHT22;24536;45.488;12.238;2024-02-16T12:38:12;20.70;77.00
38788;DHT22;24536;45.488;12.238;2024-02-16T12:40:38;20.80;77.00
38788;DHT22;24536;45.488;12.238;2024-02-16T12:43:03;21.00;76.50
38788;DHT22;24536;45.488;12.238;2024-02-16T12:45:30;21.10;76.30
38788;DHT22;24536;45.488;12.238;2024-02-16T12:47:59;21.20;75.70
38788;DHT22;24536;45.488;12.238;2024-02-16T12:50:25;21.20;75.40
38788;DHT22;24536;45.488;12.238;2024-02-16T12:52:50;21.30;75.50
38788;DHT22;24536;45.488;12.238;2024-02-16T12:55:16;21.30;75.30
38788;DHT22;24536;45.488;12.238;2024-02-16T12:57:42;21.40;74.40
38788;DHT22;24536;45.488;12.238;2024-02-16T13:00:08;21.50;74.30
38788;DHT22;24536;45.488;12.238;2024-02-16T13:02:34;21.50;73.70
38788;DHT22;24536;45.488;12.238;2024-02-16T13:05:00;21.70;73.40
38788;DHT22;24536;45.488;12.238;2024-02-16T13:07:25;21.80;73.10
38788;DHT22;24536;45.488;12.238;2024-02-16T13:09:51;22.00;72.50
38788;DHT22;24536;45.488;12.238;2024-02-16T13:12:18;22.10;72.30
38788;DHT22;24536;45.488;12.238;2024-02-16T13:14:45;22.20;71.70
38788;DHT22;24536;45.488;12.238;2024-02-16T13:17:11;22.20;72.00
38788;DHT22;24536;45.488;12.238;2024-02-16T13:19:37;22.30;71.50
38788;DHT22;24536;45.488;12.238;2024-02-16T13:22:04;22.40;71.10
38788;DHT22;24536;45.488;12.238;2024-02-16T13:24:29;22.20;70.30
38788;DHT22;24536;45.488;12.238;2024-02-16T13:26:55;21.80;71.00
38788;DHT22;24536;45.488;12.238;2024-02-16T13:29:21;21.20;71.00
38788;DHT22;24536;45.488;12.238;2024-02-16T13:31:47;20.60;72.10
38788;DHT22;24536;45.488;12.238;2024-02-16T13:34:13;20.00;73.40
38788;DHT22;24536;45.488;12.238;2024-02-16T13:36:40;19.50;74.90
38788;DHT22;24536;45.488;12.238;2024-02-16T13:39:06;19.10;76.50
38788;DHT22;24536;45.488;12.238;2024-02-16T13:41:33;18.70;77.20
38788;DHT22;24536;45.488;12.238;2024-02-16T13:43:59;18.40;78.20
38788;DHT22;24536;45.488;12.238;2024-02-16T13:46:25;18.10;79.30
38788;DHT22;24536;45.488;12.238;2024-02-16T13:48:50;17.80;80.10
38788;DHT22;24536;45.488;12.238;2024-02-16T13:51:16;17.50;80.80
38788;DHT22;24536;45.488;12.238;2024-02-16T13:53:42;17.30;81.50
38788;DHT22;24536;45.488;12.238;2024-02-16T13:56:08;17.10;82.20
38788;DHT22;24536;45.488;12.238;2024-02-16T13:58:34;16.90;82.90
38788;DHT22;24536;45.488;12.238;2024-02-16T14:01:00;16.70;83.70
38788;DHT22;24536;45.488;12.238;2024-02-16T14:03:28;16.60;84.40
38788;DHT22;24536;45.488;12.238;2024-02-16T14:05:54;16.40;84.90
38788;DHT22;24536;45.488;12.238;2024-02-16T14:08:20;16.30;85.20
38788;DHT22;24536;45.488;12.238;2024-02-16T14:10:45;16.20;85.90
38788;DHT22;24536;45.488;12.238;2024-02-16T14:13:11;16.10;86.40
38788;DHT22;24536;45.488;12.238;2024-02-16T14:15:37;16.00;86.80
38788;DHT22;24536;45.488;12.238;2024-02-16T14:18:03;15.90;87.40
38788;DHT22;24536;45.488;12.238;2024-02-16T14:20:29;15.80;87.60
38788;DHT22;24536;45.488;12.238;2024-02-16T14:22:55;15.80;87.90
38788;DHT22;24536;45.488;12.238;2024-02-16T14:25:22;15.70;88.00
38788;DHT22;24536;45.488;12.238;2024-02-16T14:27:49;15.70;88.30
38788;DHT22;24536;45.488;12.238;2024-02-16T14:30:15;15.50;88.50
38788;DHT22;24536;45.488;12.238;2024-02-16T14:32:41;15.50;88.90
38788;DHT22;24536;45.488;12.238;2024-02-16T14:35:07;15.40;89.30
38788;DHT22;24536;45.488;12.238;2024-02-16T14:37:33;15.30;89.70
38788;DHT22;24536;45.488;12.238;2024-02-16T14:39:59;15.30;90.00
38788;DHT22;24536;45.488;12.238;2024-02-16T14:42:26;15.30;90.10
38788;DHT22;24536;45.488;12.238;2024-02-16T14:44:53;15.20;90.20
38788;DHT22;24536;45.488;12.238;2024-02-16T14:47:19;15.10;90.20
38788;DHT22;24536;45.488;12.238;2024-02-16T14:49:45;14.90;90.30
38788;DHT22;24536;45.488;12.238;2024-02-16T14:52:10;14.80;90.50
38788;DHT22;24536;45.488;12.238;2024-02-16T14:54:37;14.70;90.60
38788;DHT22;24536;45.488;12.238;2024-02-16T14:57:02;14.60;90.80
38788;DHT22;24536;45.488;12.238;2024-02-16T14:59:28;14.60;91.00
38788;DHT22;24536;45.488;12.238;2024-02-16T15:01:56;14.40;91.10
38788;DHT22;24536;45.488;12.238;2024-02-16T15:04:22;14.30;91.30
38788;DHT22;24536;45.488;12.238;2024-02-16T15:06:47;14.20;91.40
38788;DHT22;24536;45.488;12.238;2024-02-16T15:09:13;14.10;91.60
38788;DHT22;24536;45.488;12.238;2024-02-16T15:11:39;14.10;91.80
38788;DHT22;24536;45.488;12.238;2024-02-16T15:14:05;14.00;92.00
38788;DHT22;24536;45.488;12.238;2024-02-16T15:16:31;14.00;92.20
38788;DHT22;24536;45.488;12.238;2024-02-16T15:18:56;13.90;92.20
38788;DHT22;24536;45.488;12.238;2024-02-16T15:21:23;13.80;92.30
38788;DHT22;24536;45.488;12.238;2024-02-16T15:23:49;13.80;92.40
38788;DHT22;24536;45.488;12.238;2024-02-16T15:26:15;13.70;92.50
38788;DHT22;24536;45.488;12.238;2024-02-16T15:28:41;13.60;92.70